createdAt,value
2024-02-04T00:01:53.994Z,98777.88
2024-02-04T00:05:56.871Z,98779.53
2024-02-04T00:09:59.026Z,98785.09
2024-02-04T00:14:01.276Z,98776.63
2024-02-04T00:18:03.695Z,98779.31
2024-02-04T00:22:05.921Z,98783.84
2024-02-04T00:26:08.101Z,98776.84
2024-02-04T00:30:10.492Z,98758.56
2024-02-04T00:34:12.874Z,98756.03
2024-02-04T00:38:15.643Z,98758.66
2024-02-04T00:42:17.833Z,98748.44
2024-02-04T00:46:20.365Z,98749.53
2024-02-04T00:50:22.822Z,98744.53
2024-02-04T00:54:24.997Z,98757.78
2024-02-04T00:58:27.234Z,98759.56
2024-02-04T01:02:29.317Z,98761.25
2024-02-04T01:06:37.376Z,98768.19
2024-02-04T01:10:45.544Z,98767.97
2024-02-04T01:14:47.581Z,98749.63
2024-02-04T01:18:49.736Z,98765.25
2024-02-04T01:22:51.908Z,98773.94
2024-02-04T01:26:53.983Z,98767.69
2024-02-04T01:30:56.631Z,98783.34
2024-02-04T01:35:00.268Z,98774.50
2024-02-04T01:39:02.416Z,98778.78
2024-02-04T01:43:04.701Z,98777.13
2024-02-04T01:47:07.262Z,98783.28
2024-02-04T01:51:10.313Z,98769.34
2024-02-04T01:55:12.765Z,98775.47
2024-02-04T01:59:15.203Z,98775.59
2024-02-04T02:03:18.064Z,98769.56
2024-02-04T02:07:22.408Z,98770.38
2024-02-04T02:11:46.964Z,98753.72
2024-02-04T02:15:52.893Z,98750.09
2024-02-04T02:20:07.063Z,98748.31
2024-02-04T02:24:16.927Z,98729.22
2024-02-04T02:28:19.018Z,98730.13
2024-02-04T02:32:21.452Z,98729.34
2024-02-04T02:36:26.207Z,98734.63
2024-02-04T02:40:48.732Z,98721.66
2024-02-04T02:44:51.656Z,98714.88
2024-02-04T02:48:54.310Z,98705.41
2024-02-04T02:52:56.470Z,98707.06
2024-02-04T02:56:58.825Z,98706.28
2024-02-04T03:01:01.057Z,98701.09
2024-02-04T03:05:03.393Z,98693.22
2024-02-04T03:09:05.539Z,98690.59
2024-02-04T03:13:07.702Z,98698.41
2024-02-04T03:17:09.924Z,98698.41
2024-02-04T03:21:16.952Z,98694.84
2024-02-04T03:25:19.140Z,98683.09
2024-02-04T03:29:21.582Z,98692.75
2024-02-04T03:33:24.130Z,98686.72
2024-02-04T03:37:26.480Z,98678.91
2024-02-04T03:41:28.829Z,98689.50
2024-02-04T03:45:31.173Z,98687.69
2024-02-04T03:49:33.545Z,98685.09
2024-02-04T03:53:35.763Z,98685.97
2024-02-04T03:57:38.283Z,98674.72
2024-02-04T04:01:40.532Z,98677.28
2024-02-04T04:05:42.846Z,98685.22
2024-02-04T04:09:45.091Z,98679.16
2024-02-04T04:13:47.143Z,98673.09
2024-02-04T04:17:49.188Z,98671.44
2024-02-04T04:21:51.369Z,98673.22
2024-02-04T04:25:53.535Z,98675.88
2024-02-04T04:29:55.583Z,98668.13
2024-02-04T04:33:57.761Z,98667.16
2024-02-04T04:38:00.179Z,98667.94
2024-02-04T04:42:02.318Z,98673.09
2024-02-04T04:46:05.568Z,98660.03
2024-02-04T04:50:08.040Z,98674.97
2024-02-04T04:54:10.172Z,98679.28
2024-02-04T04:58:12.320Z,98679.16
2024-02-04T05:02:14.524Z,98676.53
2024-02-04T05:06:16.623Z,98661.66
2024-02-04T05:10:18.691Z,98662.53
2024-02-04T05:14:21.129Z,98651.13
2024-02-04T05:18:23.503Z,98671.91
2024-02-04T05:22:25.685Z,98661.34
2024-02-04T05:26:27.833Z,98658.97
2024-02-04T05:30:30.015Z,98663.66
2024-02-04T05:34:33.372Z,98669.97
2024-02-04T05:38:35.505Z,98663.94
2024-02-04T05:42:38.116Z,98675.28
2024-02-04T05:46:40.539Z,98672.66
2024-02-04T05:50:43.210Z,98671.91
2024-02-04T05:54:45.860Z,98676.25
2024-02-04T05:58:48.670Z,98666.69
2024-02-04T06:02:50.750Z,98658.97
2024-02-04T06:06:53.016Z,98665.84
2024-02-04T06:10:55.097Z,98664.94
2024-02-04T06:14:57.165Z,98662.31
2024-02-04T06:18:59.530Z,98663.22
2024-02-04T06:23:02.183Z,98666.66
2024-02-04T06:27:04.753Z,98664.94
2024-02-04T06:31:10.156Z,98670.28
2024-02-04T06:35:12.317Z,98662.44
2024-02-04T06:39:14.871Z,98640.66
2024-02-04T06:43:17.378Z,98652.84
2024-02-04T06:47:19.551Z,98651.06
2024-02-04T06:51:21.869Z,98642.22
2024-02-04T06:55:24.091Z,98636.13
2024-02-04T06:59:26.297Z,98637.03
2024-02-04T07:03:28.616Z,98651.06
2024-02-04T07:07:30.721Z,98662.28
2024-02-04T07:11:32.867Z,98662.16
2024-02-04T07:15:34.940Z,98665.63
2024-02-04T07:19:37.082Z,98657.31
2024-02-04T07:23:39.177Z,98661.91
2024-02-04T07:27:41.203Z,98655.03
2024-02-04T07:31:43.489Z,98653.22
2024-02-04T07:35:45.647Z,98656.72
2024-02-04T07:39:47.824Z,98669.88
2024-02-04T07:43:50.192Z,98652.44
2024-02-04T07:47:52.353Z,98662.16
2024-02-04T07:51:54.631Z,98648.97
2024-02-04T07:55:56.773Z,98656.72
2024-02-04T08:00:00.282Z,98650.38
2024-02-04T08:04:04.024Z,98652.28
2024-02-04T08:08:06.995Z,98655.31
2024-02-04T08:12:10.701Z,98640.66
2024-02-04T08:16:13.355Z,98635.38
2024-02-04T08:20:15.651Z,98643.31
2024-02-04T08:24:17.792Z,98640.78
2024-02-04T08:28:20.049Z,98660.00
2024-02-04T08:32:22.176Z,98645.06
2024-02-04T08:36:24.525Z,98648.69
2024-02-04T08:40:26.806Z,98652.09
2024-02-04T08:44:38.541Z,98628.84
2024-02-04T08:48:43.486Z,98631.88
2024-02-04T08:52:45.852Z,98632.75
2024-02-04T08:56:47.979Z,98639.75
2024-02-04T09:00:50.256Z,98634.50
2024-02-04T09:04:52.476Z,98642.34
2024-02-04T09:08:54.534Z,98651.13
2024-02-04T09:12:56.627Z,98641.66
2024-02-04T09:16:58.850Z,98647.19
2024-02-04T09:21:01.195Z,98647.28
2024-02-04T09:25:03.689Z,98639.16
2024-02-04T09:29:06.576Z,98639.97
2024-02-04T09:33:09.980Z,98619.63
2024-02-04T09:37:12.518Z,98633.84
2024-02-04T09:41:14.645Z,98626.06
2024-02-04T09:45:17.057Z,98629.56
2024-02-04T09:49:19.566Z,98629.19
2024-02-04T09:53:25.999Z,98630.00
2024-02-04T09:57:30.695Z,98631.28
2024-02-04T10:01:33.335Z,98619.81
2024-02-04T10:05:35.741Z,98635.44
2024-02-04T10:09:38.421Z,98632.97
2024-02-04T10:13:47.969Z,98638.22
2024-02-04T10:17:50.371Z,98634.13
2024-02-04T10:22:03.012Z,98637.59
2024-02-04T10:26:07.629Z,98627.22
2024-02-04T10:30:11.043Z,98631.75
2024-02-04T10:34:13.269Z,98623.13
2024-02-04T10:38:15.417Z,98634.38
2024-02-04T10:42:18.811Z,98626.84
2024-02-04T10:46:23.057Z,98634.13
2024-02-04T10:50:27.153Z,98634.19
2024-02-04T10:54:31.245Z,98633.16
2024-02-04T10:58:34.726Z,98616.25
2024-02-04T11:02:40.224Z,98603.91
2024-02-04T11:06:43.191Z,98606.75
2024-02-04T11:10:45.266Z,98616.53
2024-02-04T11:14:51.514Z,98610.13
2024-02-04T11:19:09.391Z,98604.03
2024-02-04T11:23:29.462Z,98597.84
2024-02-04T11:27:31.780Z,98580.34
2024-02-04T11:31:34.043Z,98592.84
2024-02-04T11:35:37.567Z,98597.06
2024-02-04T11:39:49.308Z,98597.75
2024-02-04T11:44:01.277Z,98584.16
2024-02-04T11:48:04.951Z,98591.47
2024-02-04T11:52:07.146Z,98589.41
2024-02-04T11:56:10.078Z,98571.59
2024-02-04T12:00:12.778Z,98576.97
2024-02-04T12:04:17.402Z,98568.72
2024-02-04T12:08:19.741Z,98575.72
2024-02-04T12:12:22.276Z,98578.13
2024-02-04T12:16:24.391Z,98568.28
2024-02-04T12:20:26.497Z,98569.66
2024-02-04T12:24:29.196Z,98572.47
2024-02-04T12:28:31.408Z,98560.19
2024-02-04T12:32:33.840Z,98554.63
2024-02-04T12:36:36.076Z,98550.56
2024-02-04T12:40:38.198Z,98551.69
2024-02-04T12:44:40.305Z,98551.69
2024-02-04T12:48:42.576Z,98541.28
2024-02-04T12:52:45.983Z,98542.97
2024-02-04T12:56:54.921Z,98543.13
2024-02-04T13:01:04.305Z,98549.00
2024-02-04T13:05:06.826Z,98531.72
2024-02-04T13:09:10.128Z,98532.34
2024-02-04T13:13:14.769Z,98530.63
2024-02-04T13:17:17.185Z,98531.91
2024-02-04T13:21:21.206Z,98514.78
2024-02-04T13:25:23.485Z,98513.88
2024-02-04T13:29:25.931Z,98513.03
2024-02-04T13:33:28.002Z,98508.06
2024-02-04T13:37:30.103Z,98521.13
2024-02-04T13:41:32.851Z,98517.59
2024-02-04T13:45:34.987Z,98517.94
2024-02-04T13:49:37.087Z,98520.03
2024-02-04T13:53:39.251Z,98518.72
2024-02-04T13:57:41.644Z,98517.03
2024-02-04T14:01:44.934Z,98509.94
2024-02-04T14:05:47.190Z,98502.19
2024-02-04T14:09:49.364Z,98497.84
2024-02-04T14:13:51.447Z,98504.13
2024-02-04T14:17:53.545Z,98513.06
2024-02-04T14:21:55.998Z,98503.59
2024-02-04T14:25:58.101Z,98499.13
2024-02-04T14:30:00.294Z,98509.53
2024-02-04T14:34:02.735Z,98513.22
2024-02-04T14:38:04.952Z,98511.63
2024-02-04T14:42:07.081Z,98513.41
2024-02-04T14:46:09.577Z,98499.06
2024-02-04T14:50:13.326Z,98512.50
2024-02-04T14:54:15.421Z,98510.91
2024-02-04T14:58:17.804Z,98504.50
2024-02-04T15:02:19.965Z,98516.75
2024-02-04T15:06:22.102Z,98513.41
2024-02-04T15:10:24.542Z,98525.81
2024-02-04T15:14:26.989Z,98518.16
2024-02-04T15:18:29.437Z,98517.47
2024-02-04T15:22:31.834Z,98517.09
2024-02-04T15:26:34.698Z,98518.78
2024-02-04T15:30:36.964Z,98507.47
2024-02-04T15:34:39.441Z,98517.44
2024-02-04T15:38:41.680Z,98502.63
2024-02-04T15:42:44.152Z,98494.84
2024-02-04T15:46:48.522Z,98481.63
2024-02-04T15:50:50.912Z,98498.47
2024-02-04T15:54:53.384Z,98486.50
2024-02-04T15:59:06.330Z,98492.91
2024-02-04T16:03:08.816Z,98487.88
2024-02-04T16:07:11.550Z,98504.47
2024-02-04T16:11:19.270Z,98498.47
2024-02-04T16:15:24.293Z,98501.06
2024-02-04T16:19:26.788Z,98501.06
2024-02-04T16:23:30.125Z,98506.34
2024-02-04T16:27:32.387Z,98500.13
2024-02-04T16:31:34.478Z,98508.13
2024-02-04T16:35:38.052Z,98495.09
2024-02-04T16:39:42.111Z,98496.91
2024-02-04T16:43:44.201Z,98498.88
2024-02-04T16:47:46.272Z,98501.44
2024-02-04T16:51:48.453Z,98510.91
2024-02-04T16:55:50.832Z,98502.31
2024-02-04T16:59:52.969Z,98502.34
2024-02-04T17:03:55.399Z,98494.41
2024-02-04T17:07:57.834Z,98496.16
2024-02-04T17:12:00.267Z,98514.63
2024-02-04T17:16:12.662Z,98506.69
2024-02-04T17:20:20.801Z,98491.06
2024-02-04T17:24:29.594Z,98506.78
2024-02-04T17:28:32.067Z,98505.94
2024-02-04T17:32:34.649Z,98482.25
2024-02-04T17:36:38.573Z,98491.84
2024-02-04T17:40:43.150Z,98470.09
2024-02-04T17:44:45.189Z,98472.63
2024-02-04T17:48:47.281Z,98462.22
2024-02-04T17:52:49.363Z,98466.59
2024-02-04T17:56:52.954Z,98477.97
2024-02-04T18:00:56.164Z,98477.97
2024-02-04T18:05:01.588Z,98482.19
2024-02-04T18:09:03.830Z,98477.00
2024-02-04T18:13:06.687Z,98473.34
2024-02-04T18:17:08.815Z,98473.44
2024-02-04T18:21:22.025Z,98476.06
2024-02-04T18:25:24.330Z,98473.44
2024-02-04T18:29:26.437Z,98477.06
2024-02-04T18:33:28.481Z,98473.75
2024-02-04T18:37:30.564Z,98475.47
2024-02-04T18:41:32.682Z,98470.16
2024-02-04T18:45:34.770Z,98458.75
2024-02-04T18:49:41.292Z,98444.97
2024-02-04T18:53:43.627Z,98452.78
2024-02-04T18:57:46.890Z,98450.31
2024-02-04T19:01:49.067Z,98441.63
2024-02-04T19:05:51.570Z,98426.91
2024-02-04T19:09:53.792Z,98442.66
2024-02-04T19:13:57.788Z,98433.53
2024-02-04T19:18:00.049Z,98424.84
2024-02-04T19:22:02.257Z,98428.34
2024-02-04T19:26:04.389Z,98428.38
2024-02-04T19:30:07.105Z,98438.00
2024-02-04T19:34:09.243Z,98433.75
2024-02-04T19:38:11.301Z,98423.13
2024-02-04T19:42:13.602Z,98440.78
2024-02-04T19:46:15.798Z,98433.06
2024-02-04T19:50:17.899Z,98449.72
2024-02-04T19:54:19.953Z,98447.19
2024-02-04T19:58:22.384Z,98429.81
2024-02-04T20:02:26.586Z,98434.31
2024-02-04T20:06:28.929Z,98427.41
2024-02-04T20:10:31.034Z,98416.91
2024-02-04T20:14:33.257Z,98432.75
2024-02-04T20:18:35.370Z,98442.38
2024-02-04T20:22:37.432Z,98443.38
2024-02-04T20:26:40.215Z,98444.16
2024-02-04T20:30:42.300Z,98429.31
2024-02-04T20:34:44.708Z,98454.72
2024-02-04T20:38:46.919Z,98454.88
2024-02-04T20:42:49.029Z,98460.91
2024-02-04T20:46:51.141Z,98462.66
2024-02-04T20:50:53.624Z,98464.38
2024-02-04T20:54:55.738Z,98471.44
2024-02-04T20:58:57.908Z,98479.47
2024-02-04T21:02:59.941Z,98485.53
2024-02-04T21:07:02.072Z,98486.47
2024-02-04T21:11:05.395Z,98478.97
2024-02-04T21:15:09.123Z,98478.38
2024-02-04T21:19:11.359Z,98483.81
2024-02-04T21:23:14.231Z,98473.50
2024-02-04T21:27:16.694Z,98470.72
2024-02-04T21:31:19.008Z,98456.69
2024-02-04T21:35:21.433Z,98458.63
2024-02-04T21:39:23.581Z,98454.59
2024-02-04T21:43:25.711Z,98455.31
2024-02-04T21:47:27.812Z,98437.47
2024-02-04T21:51:29.904Z,98441.31
2024-02-04T21:55:32.800Z,98434.63
2024-02-04T21:59:34.858Z,98436.38
2024-02-04T22:03:37.108Z,98429.53
2024-02-04T22:07:39.322Z,98412.97
2024-02-04T22:11:42.367Z,98420.88
2024-02-04T22:15:44.445Z,98422.66
2024-02-04T22:19:46.772Z,98428.75
2024-02-04T22:23:49.208Z,98420.75
2024-02-04T22:27:51.761Z,98426.84
2024-02-04T22:31:53.815Z,98425.25
2024-02-04T22:35:56.038Z,98412.19
2024-02-04T22:39:58.141Z,98420.03
2024-02-04T22:44:00.464Z,98424.50
2024-02-04T22:48:03.092Z,98422.66
2024-02-04T22:52:05.572Z,98424.53
2024-02-04T22:56:09.829Z,98417.66
2024-02-04T23:00:13.774Z,98426.28
2024-02-04T23:04:15.960Z,98414.13
2024-02-04T23:08:18.132Z,98406.28
2024-02-04T23:12:20.284Z,98427.25
2024-02-04T23:16:22.552Z,98413.31
2024-02-04T23:20:24.991Z,98420.34
2024-02-04T23:24:27.125Z,98425.59
2024-02-04T23:28:29.198Z,98419.38
2024-02-04T23:32:31.456Z,98424.47
2024-02-04T23:36:33.785Z,98416.72
2024-02-04T23:40:35.864Z,98423.19
2024-02-04T23:44:38.257Z,98414.72
2024-02-04T23:48:40.659Z,98394.78
2024-02-04T23:52:43.013Z,98423.63
2024-02-04T23:56:46.281Z,98404.41
